createdAt,value
2018-12-14T00:01:40.627Z,55.10
2018-12-14T00:04:09.574Z,54.40
2018-12-14T00:06:38.544Z,54.30
2018-12-14T00:09:07.601Z,53.90
2018-12-14T00:11:36.580Z,54.20
2018-12-14T00:14:05.576Z,55.00
2018-12-14T00:16:34.599Z,54.60
2018-12-14T00:19:03.589Z,54.50
2018-12-14T00:21:32.553Z,55.10
2018-12-14T00:24:01.485Z,55.40
2018-12-14T00:26:30.424Z,55.20
2018-12-14T00:28:59.390Z,55.50
2018-12-14T00:31:28.321Z,55.30
2018-12-14T00:33:57.323Z,55.70
2018-12-14T00:36:26.312Z,55.90
2018-12-14T00:38:55.262Z,55.20
2018-12-14T00:41:24.205Z,55.50
2018-12-14T00:43:54.758Z,54.70
2018-12-14T00:46:23.677Z,55.30
2018-12-14T00:48:52.631Z,55.10
2018-12-14T00:51:21.590Z,54.90
2018-12-14T00:53:50.533Z,54.80
2018-12-14T00:56:19.446Z,54.00
2018-12-14T00:58:48.396Z,54.50
2018-12-14T01:01:17.339Z,54.60
2018-12-14T01:03:46.281Z,54.90
2018-12-14T01:06:15.237Z,55.00
2018-12-14T01:08:44.188Z,54.50
2018-12-14T01:11:13.119Z,54.30
2018-12-14T01:13:42.099Z,54.00
2018-12-14T01:16:11.078Z,54.20
2018-12-14T01:18:40.019Z,54.40
2018-12-14T01:21:08.964Z,54.30
2018-12-14T01:23:37.902Z,54.40
2018-12-14T01:26:07.126Z,54.50
2018-12-14T01:28:36.113Z,54.50
2018-12-14T01:31:05.068Z,54.90
2018-12-14T01:33:34.007Z,54.00
2018-12-14T01:36:02.955Z,54.20
2018-12-14T01:38:31.889Z,54.10
2018-12-14T01:41:00.837Z,54.30
2018-12-14T01:43:29.786Z,53.90
2018-12-14T01:45:58.728Z,53.90
2018-12-14T01:48:28.665Z,54.10
2018-12-14T01:50:57.617Z,54.60
2018-12-14T01:53:26.557Z,54.90
2018-12-14T01:55:55.510Z,54.40
2018-12-14T01:58:24.461Z,54.60
2018-12-14T02:00:53.392Z,54.30
2018-12-14T02:03:22.328Z,54.40
2018-12-14T02:05:51.284Z,53.90
2018-12-14T02:08:20.209Z,54.50
2018-12-14T02:10:49.198Z,54.10
2018-12-14T02:13:18.187Z,54.10
2018-12-14T02:15:47.137Z,54.30
2018-12-14T02:18:16.065Z,54.30
2018-12-14T02:20:45.063Z,54.70
2018-12-14T02:23:14.065Z,54.70
2018-12-14T02:25:43.030Z,54.80
2018-12-14T02:28:11.984Z,55.10
2018-12-14T02:30:43.415Z,55.40
2018-12-14T02:33:12.481Z,54.70
2018-12-14T02:35:41.450Z,55.10
2018-12-14T02:38:10.383Z,54.50
2018-12-14T02:40:39.353Z,54.90
2018-12-14T02:43:08.277Z,54.70
2018-12-14T02:45:37.349Z,55.20
2018-12-14T02:48:06.361Z,55.20
2018-12-14T02:50:35.308Z,54.70
2018-12-14T02:53:04.260Z,55.20
2018-12-14T02:55:33.219Z,54.90
2018-12-14T02:58:02.195Z,54.10
2018-12-14T03:00:31.180Z,54.40
2018-12-14T03:03:00.219Z,54.90
2018-12-14T03:05:29.159Z,54.90
2018-12-14T03:07:58.118Z,55.20
2018-12-14T03:10:27.067Z,54.70
2018-12-14T03:12:56.076Z,55.10
2018-12-14T03:15:25.132Z,55.30
2018-12-14T03:17:54.125Z,55.30
2018-12-14T03:20:23.057Z,55.80
2018-12-14T03:22:52.005Z,55.00
2018-12-14T03:25:20.978Z,55.10
2018-12-14T03:27:49.956Z,54.90
2018-12-14T03:30:18.925Z,55.50
2018-12-14T03:32:47.928Z,55.00
2018-12-14T03:35:16.917Z,54.70
2018-12-14T03:37:45.864Z,55.00
2018-12-14T03:40:14.854Z,55.00
2018-12-14T03:42:43.812Z,55.10
2018-12-14T03:45:12.795Z,54.90
2018-12-14T03:47:41.783Z,54.80
2018-12-14T03:50:10.793Z,54.90
2018-12-14T03:52:39.778Z,54.70
2018-12-14T03:55:08.807Z,54.30
2018-12-14T03:57:37.760Z,55.00
2018-12-14T04:00:07.578Z,55.20
2018-12-14T04:02:36.577Z,54.80
2018-12-14T04:05:05.628Z,54.60
2018-12-14T04:07:34.612Z,54.70
2018-12-14T04:10:04.585Z,54.30
2018-12-14T04:12:33.583Z,54.30
2018-12-14T04:15:02.609Z,54.60
2018-12-14T04:17:31.541Z,54.60
2018-12-14T04:20:00.476Z,53.70
2018-12-14T04:22:29.423Z,54.00
2018-12-14T04:24:58.369Z,53.80
2018-12-14T04:27:27.297Z,54.00
2018-12-14T04:29:57.789Z,54.10
2018-12-14T04:32:26.791Z,54.20
2018-12-14T04:34:55.714Z,54.50
2018-12-14T04:37:24.654Z,54.70
2018-12-14T04:39:53.604Z,54.10
2018-12-14T04:42:23.074Z,54.20
2018-12-14T04:44:52.073Z,54.00
2018-12-14T04:47:21.189Z,53.30
2018-12-14T04:49:50.370Z,52.90
2018-12-14T04:52:19.379Z,52.90
2018-12-14T04:54:48.373Z,53.50
2018-12-14T04:57:17.315Z,52.90
2018-12-14T04:59:46.335Z,52.90
2018-12-14T05:02:15.344Z,52.70
2018-12-14T05:04:44.277Z,52.90
2018-12-14T05:07:13.234Z,52.40
2018-12-14T05:09:42.163Z,52.20
2018-12-14T05:12:11.255Z,52.60
2018-12-14T05:14:40.336Z,52.60
2018-12-14T05:17:09.404Z,52.30
2018-12-14T05:19:38.349Z,52.20
2018-12-14T05:22:07.296Z,52.30
2018-12-14T05:24:36.241Z,53.30
2018-12-14T05:27:05.397Z,53.20
2018-12-14T05:29:34.357Z,53.00
2018-12-14T05:32:03.282Z,53.30
2018-12-14T05:34:32.293Z,53.50
2018-12-14T05:37:01.261Z,54.60
2018-12-14T05:39:30.235Z,54.10
2018-12-14T05:41:59.197Z,54.40
2018-12-14T05:44:28.117Z,54.00
2018-12-14T05:46:57.049Z,54.60
2018-12-14T05:49:26.010Z,54.90
2018-12-14T05:51:55.047Z,54.80
2018-12-14T05:54:23.971Z,55.40
2018-12-14T05:56:52.998Z,55.20
2018-12-14T05:59:21.987Z,54.80
2018-12-14T06:01:50.989Z,55.00
2018-12-14T06:04:19.941Z,55.50
2018-12-14T06:06:49.131Z,55.10
2018-12-14T06:09:18.065Z,54.40
2018-12-14T06:11:47.013Z,54.80
2018-12-14T06:14:15.974Z,55.70
2018-12-14T06:16:45.056Z,54.10
2018-12-14T06:19:14.003Z,53.70
2018-12-14T06:21:43.028Z,54.40
2018-12-14T06:24:11.996Z,54.10
2018-12-14T06:26:40.985Z,53.70
2018-12-14T06:29:09.910Z,54.20
2018-12-14T06:31:38.901Z,54.10
2018-12-14T06:34:07.821Z,54.10
2018-12-14T06:36:36.759Z,53.30
2018-12-14T06:39:06.252Z,51.70
2018-12-14T06:41:35.248Z,52.60
2018-12-14T06:44:04.208Z,53.00
2018-12-14T06:46:33.142Z,53.10
2018-12-14T06:49:02.101Z,52.90
2018-12-14T06:51:31.044Z,53.20
2018-12-14T06:54:00.045Z,52.90
2018-12-14T06:56:28.979Z,53.20
2018-12-14T06:58:57.981Z,52.70
2018-12-14T07:01:26.904Z,53.60
2018-12-14T07:03:55.840Z,53.30
2018-12-14T07:06:24.776Z,53.10
2018-12-14T07:08:53.727Z,52.60
2018-12-14T07:11:22.683Z,53.40
2018-12-14T07:13:51.609Z,54.00
2018-12-14T07:16:20.588Z,53.60
2018-12-14T07:18:49.567Z,54.20
2018-12-14T07:21:18.525Z,53.10
2018-12-14T07:23:47.533Z,52.90
2018-12-14T07:26:16.506Z,53.40
2018-12-14T07:28:45.496Z,53.50
2018-12-14T07:31:14.527Z,54.00
2018-12-14T07:33:43.470Z,54.60
2018-12-14T07:36:12.610Z,54.90
2018-12-14T07:38:47.990Z,54.80
2018-12-14T07:41:12.447Z,52.90
2018-12-14T07:43:41.439Z,53.00
2018-12-14T07:46:10.437Z,51.80
2018-12-14T07:48:39.457Z,51.80
2018-12-14T07:51:08.399Z,52.50
2018-12-14T07:53:37.353Z,51.90
2018-12-14T07:56:06.307Z,52.50
2018-12-14T07:58:36.451Z,52.50
2018-12-14T08:01:05.539Z,53.00
2018-12-14T08:03:34.965Z,52.70
2018-12-14T08:06:03.978Z,54.00
2018-12-14T08:08:32.985Z,51.60
2018-12-14T08:11:01.927Z,51.30
2018-12-14T08:13:34.834Z,52.40
2018-12-14T08:16:01.764Z,52.00
2018-12-14T08:18:30.718Z,52.00
2018-12-14T08:21:00.609Z,52.90
2018-12-14T08:23:29.610Z,53.20
2018-12-14T08:25:59.927Z,53.50
2018-12-14T08:28:28.882Z,53.30
2018-12-14T08:30:57.904Z,53.70
2018-12-14T08:33:26.853Z,53.20
2018-12-14T08:35:55.860Z,53.20
2018-12-14T08:38:24.840Z,53.20
2018-12-14T08:40:53.772Z,52.20
2018-12-14T08:43:22.703Z,52.70
2018-12-14T08:45:51.677Z,53.10
2018-12-14T08:48:20.715Z,52.90
2018-12-14T08:50:49.718Z,54.00
2018-12-14T08:53:18.913Z,53.80
2018-12-14T08:55:47.889Z,54.00
2018-12-14T08:58:17.823Z,53.90
2018-12-14T09:00:46.754Z,53.00
2018-12-14T09:03:15.701Z,53.40
2018-12-14T09:05:44.667Z,52.90
2018-12-14T09:08:13.632Z,53.30
2018-12-14T09:10:42.559Z,53.20
2018-12-14T09:13:11.581Z,52.80
2018-12-14T09:15:40.582Z,53.30
2018-12-14T09:18:09.515Z,51.70
2018-12-14T09:20:38.491Z,52.40
2018-12-14T09:23:07.693Z,52.80
2018-12-14T09:25:36.654Z,52.40
2018-12-14T09:28:05.612Z,52.30
2018-12-14T09:30:34.573Z,53.30
2018-12-14T09:33:03.579Z,52.40
2018-12-14T09:35:32.590Z,53.30
2018-12-14T09:38:01.526Z,53.30
2018-12-14T09:40:30.548Z,53.20
2018-12-14T09:42:59.527Z,53.30
2018-12-14T09:45:28.526Z,53.10
2018-12-14T09:47:57.629Z,53.30
2018-12-14T09:50:26.615Z,53.50
2018-12-14T09:52:55.558Z,53.90
2018-12-14T09:55:24.566Z,53.00
2018-12-14T09:57:53.506Z,52.90
2018-12-14T10:00:22.446Z,53.20
2018-12-14T10:02:51.385Z,53.30
2018-12-14T10:05:20.393Z,52.80
2018-12-14T10:07:49.334Z,52.60
2018-12-14T10:10:18.308Z,53.80
2018-12-14T10:12:47.260Z,53.50
2018-12-14T10:15:16.204Z,53.50
2018-12-14T10:17:45.144Z,52.80
2018-12-14T10:20:14.088Z,52.00
2018-12-14T10:22:43.021Z,51.90
2018-12-14T10:25:12.004Z,52.00
2018-12-14T10:27:40.941Z,52.30
2018-12-14T10:30:10.153Z,51.70
2018-12-14T10:32:40.035Z,51.50
2018-12-14T10:35:10.512Z,52.00
2018-12-14T10:37:39.485Z,52.20
2018-12-14T10:40:11.612Z,51.20
2018-12-14T10:42:40.559Z,50.90
2018-12-14T10:45:09.752Z,51.50
2018-12-14T10:47:38.732Z,51.30
2018-12-14T10:50:08.510Z,51.90
2018-12-14T10:52:37.505Z,51.90
2018-12-14T10:55:06.798Z,51.80
2018-12-14T10:57:35.983Z,52.60
2018-12-14T11:02:53.627Z,53.30
2018-12-14T11:05:22.565Z,52.20
2018-12-14T11:07:51.515Z,53.10
2018-12-14T11:10:20.450Z,51.60
2018-12-14T11:12:49.387Z,50.80
2018-12-14T11:15:18.319Z,50.40
2018-12-14T11:17:47.261Z,49.70
2018-12-14T11:20:16.215Z,48.70
2018-12-14T11:22:45.161Z,49.60
2018-12-14T11:25:14.129Z,48.60
2018-12-14T11:27:43.064Z,49.30
2018-12-14T11:30:12.059Z,49.10
2018-12-14T11:32:40.985Z,49.80
2018-12-14T11:35:09.945Z,50.70
2018-12-14T11:37:38.932Z,50.60
2018-12-14T11:40:07.862Z,51.30
2018-12-14T11:42:36.811Z,51.30
2018-12-14T11:45:06.620Z,50.30
2018-12-14T11:47:35.578Z,51.00
2018-12-14T11:50:06.673Z,50.70
2018-12-14T11:52:35.601Z,50.70
2018-12-14T11:55:06.794Z,49.10
2018-12-14T11:57:35.730Z,49.50
2018-12-14T12:00:07.962Z,50.80
2018-12-14T12:02:42.865Z,51.90
2018-12-14T12:05:07.949Z,50.30
2018-12-14T12:07:37.314Z,49.50
2018-12-14T12:10:08.303Z,50.70
2018-12-14T12:12:37.288Z,51.30
2018-12-14T12:15:06.645Z,50.60
2018-12-14T12:17:37.203Z,51.00
2018-12-14T12:20:06.801Z,50.10
2018-12-14T12:22:35.802Z,50.30
2018-12-14T12:25:05.094Z,50.50
2018-12-14T12:27:34.170Z,49.60
2018-12-14T12:30:04.691Z,50.30
2018-12-14T12:32:33.644Z,50.60
2018-12-14T12:35:02.580Z,49.60
2018-12-14T12:37:31.518Z,49.70
2018-12-14T12:40:00.494Z,50.10
2018-12-14T12:42:29.430Z,50.60
2018-12-14T12:44:58.360Z,50.10
2018-12-14T12:47:27.300Z,49.70
2018-12-14T12:49:56.274Z,49.70
2018-12-14T12:52:25.233Z,49.20
2018-12-14T12:54:54.188Z,49.00
2018-12-14T12:57:23.124Z,50.10
2018-12-14T12:59:52.070Z,51.40
2018-12-14T13:02:21.025Z,50.10
2018-12-14T13:04:49.997Z,50.30
2018-12-14T13:07:18.994Z,51.20
2018-12-14T13:09:47.965Z,50.70
2018-12-14T13:12:16.950Z,49.80
2018-12-14T13:14:45.895Z,49.20
2018-12-14T13:17:15.923Z,49.60
2018-12-14T13:19:44.914Z,49.20
2018-12-14T13:22:13.928Z,50.10
2018-12-14T13:24:42.864Z,50.60
2018-12-14T13:27:11.801Z,51.30
2018-12-14T13:29:40.728Z,51.30
2018-12-14T13:32:10.629Z,50.90
2018-12-14T13:34:39.601Z,49.80
2018-12-14T13:37:08.608Z,49.00
2018-12-14T13:39:37.563Z,48.50
2018-12-14T13:42:06.549Z,48.30
2018-12-14T13:44:36.973Z,48.70
2018-12-14T13:47:05.995Z,49.20
2018-12-14T13:49:34.970Z,49.40
2018-12-14T13:52:04.028Z,50.60
2018-12-14T13:54:32.994Z,50.70
2018-12-14T13:57:01.947Z,51.30
2018-12-14T13:59:30.889Z,52.30
2018-12-14T14:02:01.121Z,50.80
2018-12-14T14:04:30.176Z,49.90
2018-12-14T14:06:59.157Z,49.80
2018-12-14T14:09:28.533Z,50.20
2018-12-14T14:11:57.554Z,50.10
2018-12-14T14:14:26.512Z,50.40
2018-12-14T14:16:55.846Z,50.60
2018-12-14T14:19:25.641Z,49.40
2018-12-14T14:21:54.673Z,49.30
2018-12-14T14:24:23.639Z,48.50
2018-12-14T14:26:52.601Z,49.00
2018-12-14T14:29:21.563Z,48.20
2018-12-14T14:31:50.517Z,49.40
2018-12-14T14:34:20.164Z,49.10
2018-12-14T14:36:49.116Z,50.20
2018-12-14T14:39:18.070Z,48.10
2018-12-14T14:41:47.019Z,48.90
2018-12-14T14:44:16.017Z,48.90
2018-12-14T14:46:45.002Z,49.60
2018-12-14T14:49:13.917Z,50.10
2018-12-14T14:51:43.152Z,50.00
2018-12-14T14:54:12.126Z,49.90
2018-12-14T14:56:41.072Z,50.20
2018-12-14T14:59:10.108Z,51.00
2018-12-14T15:01:39.122Z,51.20
2018-12-14T15:04:08.132Z,50.40
2018-12-14T15:06:37.103Z,51.00
2018-12-14T15:09:08.350Z,50.90
2018-12-14T15:11:37.331Z,51.50
2018-12-14T15:14:06.415Z,50.60
2018-12-14T15:16:35.430Z,49.60
2018-12-14T15:19:04.585Z,50.30
2018-12-14T15:21:33.545Z,50.70
2018-12-14T15:24:02.541Z,50.50
2018-12-14T15:26:31.528Z,51.20
2018-12-14T15:29:00.661Z,50.20
2018-12-14T15:31:29.582Z,50.80
2018-12-14T15:33:58.559Z,51.00
2018-12-14T15:36:27.488Z,50.40
2018-12-14T15:38:56.453Z,50.30
2018-12-14T15:41:25.387Z,50.40
2018-12-14T15:43:54.343Z,50.40
2018-12-14T15:46:24.221Z,50.40
2018-12-14T15:48:53.186Z,50.50
2018-12-14T15:51:22.137Z,50.50
2018-12-14T15:53:51.105Z,51.00
2018-12-14T15:56:20.072Z,50.40
2018-12-14T15:58:49.026Z,50.60
2018-12-14T16:01:17.993Z,49.90
2018-12-14T16:03:46.961Z,49.90
2018-12-14T16:06:15.925Z,48.70
2018-12-14T16:08:44.958Z,49.20
2018-12-14T16:11:14.410Z,49.20
2018-12-14T16:13:43.362Z,49.50
2018-12-14T16:16:12.286Z,49.10
2018-12-14T16:18:41.325Z,49.70
2018-12-14T16:21:10.310Z,49.00
2018-12-14T16:23:39.332Z,49.40
2018-12-14T16:26:08.329Z,49.10
2018-12-14T16:28:37.351Z,49.30
2018-12-14T16:31:06.342Z,48.40
2018-12-14T16:33:35.309Z,48.90
2018-12-14T16:36:04.226Z,48.90
2018-12-14T16:38:33.286Z,49.90
2018-12-14T16:41:02.224Z,51.50
2018-12-14T16:43:31.178Z,50.30
2018-12-14T16:46:00.137Z,50.50
2018-12-14T16:48:29.102Z,50.70
2018-12-14T16:50:58.053Z,50.70
2018-12-14T16:53:27.053Z,50.70
2018-12-14T16:55:56.080Z,50.10
2018-12-14T16:58:25.008Z,49.10
2018-12-14T17:00:55.094Z,49.40
2018-12-14T17:03:24.148Z,49.80
2018-12-14T17:05:53.137Z,49.10
2018-12-14T17:08:22.149Z,49.60
2018-12-14T17:10:51.116Z,49.60
2018-12-14T17:13:22.106Z,49.70
2018-12-14T17:15:51.092Z,50.60
2018-12-14T17:18:20.023Z,50.40
2018-12-14T17:20:49.008Z,49.50
2018-12-14T17:23:17.947Z,50.00
2018-12-14T17:25:46.957Z,50.30
2018-12-14T17:28:15.892Z,50.20
2018-12-14T17:30:44.903Z,50.40
2018-12-14T17:33:13.860Z,49.40
2018-12-14T17:35:42.874Z,49.20
2018-12-14T17:38:11.839Z,49.60
2018-12-14T17:40:40.807Z,49.90
2018-12-14T17:43:09.728Z,49.50
2018-12-14T17:45:39.923Z,48.70
2018-12-14T17:48:09.051Z,47.30
2018-12-14T17:50:38.042Z,47.70
2018-12-14T17:53:06.959Z,48.20
2018-12-14T17:55:35.916Z,47.20
2018-12-14T17:58:04.898Z,47.80
2018-12-14T18:00:33.901Z,49.00
2018-12-14T18:03:02.825Z,49.80
2018-12-14T18:05:31.879Z,49.00
2018-12-14T18:08:00.797Z,49.20
2018-12-14T18:10:29.861Z,48.80
2018-12-14T18:12:58.871Z,49.10
2018-12-14T18:15:27.901Z,49.60
2018-12-14T18:17:56.833Z,49.30
2018-12-14T18:20:25.787Z,49.60
2018-12-14T18:22:54.737Z,49.10
2018-12-14T18:25:23.940Z,49.90
2018-12-14T18:27:52.878Z,50.30
2018-12-14T18:30:21.836Z,50.40
2018-12-14T18:32:50.794Z,50.30
2018-12-14T18:35:19.841Z,50.40
2018-12-14T18:37:48.805Z,49.70
2018-12-14T18:40:17.827Z,50.30
2018-12-14T18:42:46.760Z,49.60
2018-12-14T18:45:15.845Z,49.30
2018-12-14T18:47:44.796Z,48.60
2018-12-14T18:50:13.757Z,49.20
2018-12-14T18:52:42.791Z,48.80
2018-12-14T18:55:11.813Z,48.80
2018-12-14T18:57:41.881Z,48.80
2018-12-14T19:00:10.971Z,49.40
2018-12-14T19:02:39.925Z,49.90
2018-12-14T19:05:09.068Z,49.90
2018-12-14T19:07:38.063Z,50.00
2018-12-14T19:10:07.078Z,49.20
2018-12-14T19:12:36.187Z,49.50
2018-12-14T19:15:05.470Z,49.80
2018-12-14T19:17:34.416Z,50.10
2018-12-14T19:20:03.635Z,48.70
2018-12-14T19:22:32.601Z,47.90
2018-12-14T19:25:01.577Z,47.40
2018-12-14T19:27:30.504Z,47.10
2018-12-14T19:29:59.490Z,47.50
2018-12-14T19:32:28.472Z,47.60
2018-12-14T19:34:57.485Z,47.50
2018-12-14T19:37:26.453Z,47.90
2018-12-14T19:39:55.521Z,48.10
2018-12-14T19:42:24.479Z,49.30
2018-12-14T19:44:53.516Z,50.00
2018-12-14T19:47:22.667Z,49.10
2018-12-14T19:49:51.685Z,48.90
2018-12-14T19:52:20.652Z,49.50
2018-12-14T19:54:49.664Z,50.00
2018-12-14T19:57:18.604Z,50.10
2018-12-14T19:59:47.615Z,50.10
2018-12-14T20:02:16.527Z,50.30
2018-12-14T20:04:45.497Z,50.10
2018-12-14T20:07:14.456Z,49.90
2018-12-14T20:09:43.448Z,50.90
2018-12-14T20:12:12.728Z,50.40
2018-12-14T20:14:41.796Z,50.60
2018-12-14T20:17:10.738Z,50.00
2018-12-14T20:19:39.935Z,48.70
2018-12-14T20:22:08.877Z,49.10
2018-12-14T20:24:38.917Z,49.50
2018-12-14T20:27:07.889Z,50.50
2018-12-14T20:29:36.953Z,51.40
2018-12-14T20:32:06.001Z,51.30
2018-12-14T20:34:35.025Z,51.40
2018-12-14T20:37:04.016Z,52.00
2018-12-14T20:39:32.997Z,52.40
2018-12-14T20:42:02.003Z,52.70
2018-12-14T20:44:31.005Z,52.80
2018-12-14T20:47:00.131Z,53.10
2018-12-14T20:49:29.675Z,52.80
2018-12-14T20:51:59.883Z,52.70
2018-12-14T20:54:28.857Z,53.00
2018-12-14T20:56:57.826Z,52.30
2018-12-14T20:59:26.796Z,52.40
2018-12-14T21:01:55.774Z,52.90
2018-12-14T21:04:24.717Z,53.70
2018-12-14T21:06:54.718Z,53.00
2018-12-14T21:09:23.657Z,53.00
2018-12-14T21:11:52.819Z,53.50
2018-12-14T21:14:22.044Z,52.70
2018-12-14T21:16:51.308Z,53.10
2018-12-14T21:19:20.278Z,53.60
2018-12-14T21:21:49.216Z,53.40
2018-12-14T21:24:18.212Z,53.70
2018-12-14T21:26:47.201Z,53.90
2018-12-14T21:29:16.377Z,54.30
2018-12-14T21:31:45.315Z,54.40
2018-12-14T21:34:14.277Z,54.40
2018-12-14T21:36:43.228Z,54.70
2018-12-14T21:39:12.201Z,54.30
2018-12-14T21:41:41.201Z,53.70
2018-12-14T21:44:10.242Z,53.70
2018-12-14T21:46:39.149Z,53.20
2018-12-14T21:49:08.361Z,53.00
2018-12-14T21:51:37.239Z,53.10
2018-12-14T21:54:06.231Z,53.30
2018-12-14T21:56:35.253Z,52.70
2018-12-14T21:59:04.343Z,52.80
2018-12-14T22:01:33.361Z,52.50
2018-12-14T22:04:02.369Z,52.90
2018-12-14T22:06:31.404Z,53.10
2018-12-14T22:09:00.351Z,53.50
2018-12-14T22:11:29.322Z,52.50
2018-12-14T22:13:58.288Z,52.10
2018-12-14T22:16:27.217Z,51.80
2018-12-14T22:18:56.152Z,52.50
2018-12-14T22:21:25.092Z,52.40
2018-12-14T22:23:54.101Z,52.50
2018-12-14T22:26:23.213Z,52.80
2018-12-14T22:28:52.143Z,53.10
2018-12-14T22:31:21.162Z,52.90
2018-12-14T22:33:50.109Z,53.20
2018-12-14T22:36:19.129Z,53.20
2018-12-14T22:38:48.103Z,53.40
2018-12-14T22:41:17.037Z,53.70
2018-12-14T22:43:45.971Z,53.70
2018-12-14T22:46:15.140Z,53.70
2018-12-14T22:48:44.171Z,54.60
2018-12-14T22:51:13.106Z,54.10
2018-12-14T22:53:42.077Z,54.10
2018-12-14T22:56:11.025Z,54.90
2018-12-14T22:58:39.953Z,55.20
2018-12-14T23:01:08.910Z,54.90
2018-12-14T23:03:37.877Z,55.30
2018-12-14T23:06:06.852Z,55.10
2018-12-14T23:08:35.792Z,55.20
2018-12-14T23:11:04.816Z,55.10
2018-12-14T23:13:33.764Z,55.40
2018-12-14T23:16:02.789Z,55.10
2018-12-14T23:18:31.742Z,54.50
2018-12-14T23:21:00.695Z,54.70
2018-12-14T23:23:29.623Z,54.40
2018-12-14T23:25:58.613Z,54.30
2018-12-14T23:28:27.554Z,54.50
2018-12-14T23:30:56.560Z,54.40
2018-12-14T23:33:25.556Z,54.70
2018-12-14T23:35:54.567Z,54.60
2018-12-14T23:38:23.519Z,54.40
2018-12-14T23:40:52.534Z,55.00
2018-12-14T23:43:21.465Z,55.20
2018-12-14T23:45:50.400Z,55.60
2018-12-14T23:48:19.339Z,55.20
2018-12-14T23:50:48.285Z,55.30
2018-12-14T23:53:17.259Z,55.70
2018-12-14T23:55:46.192Z,55.70
2018-12-14T23:58:15.119Z,55.90
